Weather observations for the past three days for
Gonzales Roger M. Dreyer Memorial
| Date | Time (cdt) | Wind (kph) | Vis. (km) | Weather | Sky Cond. | Temperature (ºC) | Relative Humidity | Wind Chill (°C) | Heat Index (°C) | Pressure | Precipitation (cm) | ||||||
|---|---|---|---|---|---|---|---|---|---|---|---|---|---|---|---|---|---|
| Air | Dwpt | 6 hour | altimeter (cm) | sea level (mb) | 1 hr | 3 hr | 6 hr | ||||||||||
| Max. | Min. | ||||||||||||||||
| 10 | 00:35 | S 6 | 0.00 | Fair | CLR | 24 | 20.7 | 82% | 24 | 75.82 | 0.0 | ||||||
| 10 | 00:15 | S 9 | 0.00 | Fair | CLR | 24.2 | 20.7 | 81% | 25 | 75.82 | 0.0 | ||||||
| 09 | 23:55 | SE 9 | 0.00 | Fair | CLR | 24.2 | 20.8 | 81% | 25 | 75.82 | 0.0 | ||||||
| 09 | 23:35 | SE 9 | 0.00 | Fair | CLR | 24.5 | 20.7 | 79% | 25 | 75.79 | 0.0 | ||||||
| 09 | 23:15 | SE 7 | 0.00 | Fair | CLR | 24.5 | 20.7 | 79% | 25 | 75.79 | 0.0 | ||||||
| 09 | 22:55 | SE 7 | 0.00 | Fair | CLR | 24.5 | 20.6 | 79% | 25 | 75.79 | 0.0 | ||||||
| 09 | 22:35 | SE 11 | 0.00 | Fair | CLR | 25.2 | 20.5 | 75% | 26 | 75.77 | 0.0 | ||||||
| 09 | 22:15 | SE 11 | 0.00 | Fair | CLR | 25.4 | 20.1 | 73% | 27 | 75.77 | 0.0 | ||||||
| 09 | 21:55 | E 7 | 0.00 | Fair | CLR | 24.9 | 20 | 74% | 26 | 75.74 | 0.0 | ||||||
| 09 | 21:35 | E 7 | 0.00 | Fair | CLR | 24.7 | 20.2 | 76% | 26 | 75.72 | 0.0 | ||||||
| 09 | 21:15 | Calm | 0.00 | Fair | CLR | 24.5 | 20.6 | 79% | 25 | 75.69 | 0.0 | ||||||
| 09 | 20:55 | E 6 | 0.00 | Fair | CLR | 25.7 | 20.1 | 71% | 27 | 75.67 | 0.0 | ||||||
| 09 | 20:35 | E 7 | 0.00 | Fair | CLR | 26 | 20 | 70% | 27 | 75.64 | 0.0 | ||||||
| 09 | 20:15 | E 6 | 0.00 | Fair | CLR | 26.6 | 19.9 | 67% | 28 | 75.64 | 0.0 | ||||||
| 09 | 19:55 | E 19 | 0.00 | Partly Cloudy | SCT060 SCT075 SCT095 | 28.9 | 20.4 | 60% | 31 | 75.64 | 0.0 | ||||||
| 09 | 19:35 | SE 6 | 0.00 | Partly Cloudy | SCT060 | 30.2 | 20.8 | 57% | 33 | 75.64 | 0.0 | ||||||
| 09 | 19:15 | SE 6 | 0.00 | Fair | CLR | 30.5 | 20.6 | 55% | 33 | 75.62 | 0.0 | ||||||
| 09 | 18:55 | E 7 | 0.00 | Fair | CLR | 31.4 | 21.1 | 32.5 | 28.7 | 54% | 34 | 75.62 | 0.0 | ||||
| 09 | 18:15 | Calm | 0.00 | Partly Cloudy | SCT050 | 31.6 | 20.9 | 53% | 34 | 75.59 | 0.0 | ||||||
| 09 | 17:55 | Calm | 0.00 | Partly Cloudy | SCT050 | 32.4 | 20.8 | 50% | 35 | 75.59 | 0.0 | ||||||
| 09 | 17:35 | S 7 | 0.00 | Fair | CLR | 32.5 | 21.2 | 51% | 36 | 75.59 | 0.0 | ||||||
| 09 | 17:15 | Calm | 0.00 | Fair | CLR | 32.5 | 20.9 | 50% | 35 | 75.57 | 0.0 | ||||||
| 09 | 16:55 | Calm | 0.00 | Fair | CLR | 32.1 | 20.9 | 52% | 35 | 75.57 | 0.0 | ||||||
| 09 | 16:35 | S 9 | 0.00 | Fair | CLR | 32.5 | 20.9 | 50% | 35 | 75.59 | 0.0 | ||||||
| 09 | 16:15 | Calm | 0.00 | Fair | CLR | 31.9 | 21.1 | 53% | 35 | 75.62 | 0.0 | ||||||
| 09 | 15:55 | N 6 | 0.00 | Fair | CLR | 31.9 | 21.8 | 55% | 35 | 75.64 | 0.0 | ||||||
| 09 | 15:35 | W 6 | 0.00 | Fair | CLR | 31.7 | 22 | 56% | 35 | 75.67 | 0.0 | ||||||
| 09 | 15:15 | W 6 | 0.00 | Fair | CLR | 31.4 | 21.7 | 56% | 35 | 75.67 | 0.0 | ||||||
| 09 | 14:55 | W 6 | 0.00 | Fair | CLR | 30.8 | 22.4 | 61% | 35 | 75.67 | 0.0 | ||||||
| 09 | 14:35 | Calm | 0.00 | Fair | CLR | 30.8 | 22.4 | 61% | 35 | 75.69 | 0.0 | ||||||
| 09 | 14:15 | NW 7 | 0.00 | Partly Cloudy | SCT029 | 30.4 | 23.1 | 65% | 35 | 75.72 | 0.0 | ||||||
| 09 | 13:55 | N 9 | 0.00 | Partly Cloudy | SCT029 | 30 | 23.2 | 67% | 34 | 75.74 | 0.0 | ||||||
| 09 | 13:35 | Calm | 0.00 | Partly Cloudy | SCT027 | 29.8 | 23.1 | 67% | 34 | 75.74 | 0.0 | ||||||
| 09 | 13:15 | Calm | 0.00 | Fair | CLR | 29.1 | 23.2 | 71% | 33 | 75.77 | 0.0 | ||||||
| 09 | 12:55 | NW 7 | 0.00 | Partly Cloudy | SCT022 | 29 | 23.3 | 29 | 23.1 | 71% | 33 | 75.79 | 0.0 | 0.3 | |||
| 09 | 12:35 | W 6 | 0.00 | Partly Cloudy | SCT022 SCT049 | 28.4 | 23.5 | 75% | 32 | 75.82 | 0.0 | ||||||
| 09 | 12:15 | W 6 | 0.00 | Mostly Cloudy | BKN020 BKN049 | 27.9 | 23 | 75% | 31 | 75.84 | 0.0 | ||||||
| 09 | 11:55 | Calm | 0.00 | Partly Cloudy | SCT016 | 27.1 | 23.2 | 79% | 30 | 75.82 | 0.0 | ||||||
| 09 | 11:35 | W 9 | 0.00 | Partly Cloudy | SCT014 | 26.6 | 23.1 | 81% | 29 | 75.82 | 0.0 | ||||||
| 09 | 11:15 | Calm | 0.00 | NULL | NULL | 26.2 | 23.6 | 86% | 28 | 75.82 | 0.0 | ||||||
| 09 | 10:55 | Calm | 0.00 | Overcast | BKN007 OVC014 | 25.4 | 24.1 | 93% | 27 | 75.84 | 0.0 | ||||||
| 09 | 10:35 | N 7 | 0.00 | Overcast | OVC007 | 24.6 | 23.7 | 95% | 25 | 75.84 | 0.0 | ||||||
| 09 | 10:15 | Calm | 0.00 | Mostly Cloudy | BKN005 BKN050 | 24.4 | 23.8 | 96% | 24 | 75.79 | 0.0 | ||||||
| 09 | 09:55 | Calm | 0.00 | NULL | NULL | 24.4 | 23.8 | 96% | 24 | 75.79 | 0.0 | 0.3 | |||||
| 09 | 09:35 | SW 11 | 0.00 | NULL | NULL | 23.8 | 23.5 | 98% | 75.79 | 0.0 | |||||||
| 09 | 09:15 | SW 7 | 0.00 | NULL | NULL | 23.7 | 23.5 | 99% | 75.79 | 0.0 | |||||||
| 09 | 08:55 | S 6 | 0.00 | Mostly Cloudy | BKN002 | 23.7 | 23.5 | 99% | 75.79 | 0.0 | 0.23 | ||||||
| 09 | 08:35 | E 6 | 0.00 | Overcast | BKN002 OVC032 | 23.7 | 23.5 | 99% | 75.74 | 0.0 | 0.2 | ||||||
| 09 | 08:15 | SE 9 | 0.00 | Thunderstorm in Vicinity | BKN002 BKN032 OVC041 | 23.5 | 23.3 | 99% | 75.77 | 0.0 | 0.2 | ||||||
| 09 | 07:55 | Calm | 0.00 | Thunderstorm | OVC002 | 23.5 | 23.2 | 98% | 75.87 | 0.0 | 0.08 | ||||||
| 09 | 07:35 | Calm | 0.00 | Overcast | OVC002 | 23.3 | 23.1 | 99% | 75.84 | 0.0 | 0.05 | ||||||
| 09 | 07:15 | E 6 | 0.00 | Overcast | OVC002 | 23.2 | 23 | 99% | 75.84 | 0.0 | 0.03 | ||||||
| 09 | 06:55 | NE 7 | 0.00 | Overcast | OVC002 | 23.1 | 23 | 23.3 | 23 | 99% | 75.84 | 0.0 | 0.05 | 0.05 | |||
| 09 | 06:35 | NE 9 | 0.00 | Overcast | OVC002 | 23.1 | 23 | 99% | 75.79 | 0.0 | |||||||
| 09 | 06:15 | E 6 | 0.00 | Overcast | OVC002 | 23.1 | 23 | 99% | 75.74 | 0.0 | |||||||
| 09 | 05:55 | E 7 | 0.00 | Overcast | OVC002 | 23.1 | 23 | 99% | 75.72 | 0.0 | |||||||
| 09 | 05:35 | Calm | 0.00 | Overcast | OVC002 | 23.1 | 23 | 99% | 75.77 | 0.0 | |||||||
| 09 | 05:15 | N 6 | 0.00 | Overcast | OVC002 | 23.1 | 23 | 99% | 75.79 | 0.0 | |||||||
| 09 | 04:55 | Calm | 0.00 | Overcast | OVC002 | 23.1 | 22.9 | 99% | 75.74 | 0.0 | |||||||
| 09 | 04:35 | NE 7 | 0.00 | Overcast | OVC002 | 23 | 22.7 | 98% | 75.69 | 0.0 | |||||||
| 09 | 04:15 | E 7 | 0.00 | Overcast | OVC004 | 23.1 | 22.7 | 98% | 75.69 | 0.0 | |||||||
| 09 | 03:55 | Calm | 0.00 | Overcast | OVC004 | 23.1 | 22.6 | 97% | 75.72 | 0.0 | |||||||
| 09 | 03:35 | S 6 | 0.00 | Overcast | OVC004 | 23.2 | 22.6 | 96% | 75.72 | 0.0 | |||||||
| 09 | 03:15 | Calm | 0.00 | Overcast | OVC006 | 23.2 | 22.5 | 96% | 75.72 | 0.0 | |||||||
| 09 | 02:55 | SE 7 | 0.00 | Overcast | OVC006 | 23.2 | 22.5 | 96% | 75.72 | 0.0 | |||||||
| 09 | 02:35 | SE 6 | 0.00 | Overcast | OVC006 | 23.3 | 22.5 | 95% | 75.74 | 0.0 | |||||||
| 09 | 02:15 | S 6 | 0.00 | Overcast | OVC006 | 23.3 | 22.5 | 95% | 75.74 | 0.0 | |||||||
| 09 | 01:55 | S 7 | 0.00 | Overcast | BKN006 OVC010 | 23.3 | 22.5 | 95% | 75.74 | 0.0 | |||||||
| 09 | 01:35 | S 9 | 0.00 | Overcast | BKN006 OVC010 | 23.2 | 22.5 | 96% | 75.74 | 0.0 | |||||||
| 09 | 01:15 | S 13 | 0.00 | Overcast | BKN008 OVC014 | 23.3 | 22.5 | 95% | 75.74 | 0.0 | |||||||
| 09 | 00:55 | SE 13 | 0.00 | Overcast | OVC006 | 23.3 | 22.5 | 25.1 | 23 | 95% | 75.77 | 0.0 | |||||
| 09 | 00:35 | SE 11 | 0.00 | Overcast | OVC006 | 23.5 | 22.5 | 94% | 75.79 | 0.0 | |||||||
| 09 | 00:15 | SE 7 | 0.00 | Overcast | OVC006 | 23.5 | 22.5 | 94% | 75.82 | 0.0 | |||||||
| 08 | 23:55 | SE 6 | 0.00 | Overcast | OVC006 | 23.5 | 22.5 | 94% | 75.79 | 0.0 | |||||||
| 08 | 23:35 | SE 7 | 0.00 | Overcast | OVC008 | 23.2 | 22.2 | 94% | 75.77 | 0.0 | |||||||
| 08 | 23:15 | Calm | 0.00 | Overcast | BKN008 OVC023 | 23.1 | 22.1 | 94% | 75.77 | 0.0 | |||||||
| 08 | 22:55 | Calm | 0.00 | Mostly Cloudy | BKN023 | 23 | 22 | 94% | 75.77 | 0.0 | |||||||
| 08 | 22:35 | SE 6 | 0.00 | NULL | NULL | 23.1 | 22 | 94% | 75.74 | 0.0 | |||||||
| 08 | 22:15 | SE 7 | 0.00 | NULL | NULL | 23.5 | 22 | 91% | 75.72 | 0.0 | |||||||
| 08 | 21:55 | SE 6 | 0.00 | NULL | NULL | 23.8 | 22 | 90% | 75.72 | 0.0 | |||||||
| 08 | 21:35 | E 6 | 0.00 | NULL | NULL | 24.1 | 22 | 88% | 24 | 75.69 | 0.0 | ||||||
| 08 | 20:55 | E 7 | 0.00 | NULL | NULL | 24.6 | 22.1 | 86% | 25 | 75.67 | 0.0 | ||||||
| 08 | 20:35 | E 6 | 0.00 | NULL | NULL | 24.6 | 22.1 | 86% | 25 | 75.67 | 0.0 | ||||||
| 08 | 20:15 | E 9 | 0.00 | Overcast | SCT019 OVC027 | 24.8 | 22.1 | 85% | 25 | 75.64 | 0.0 | ||||||
| 08 | 19:55 | E 7 | 0.00 | Overcast | BKN019 OVC026 | 25 | 22 | 83% | 26 | 75.64 | 0.0 | ||||||
| 08 | 19:35 | E 6 | 0.00 | Overcast | BKN019 OVC023 | 25 | 22.1 | 84% | 26 | 75.67 | 0.0 | ||||||
| 08 | 19:15 | E 7 | 0.00 | Overcast | OVC019 | 25 | 22 | 83% | 26 | 75.64 | 0.0 | ||||||
| 08 | 18:55 | E 6 | 0.00 | Overcast | OVC021 | 25.1 | 22 | 26.2 | 21.4 | 83% | 26 | 75.64 | 0.0 | ||||
| 08 | 18:35 | E 7 | 0.00 | Overcast | OVC023 | 25.5 | 22 | 81% | 27 | 75.64 | 0.0 | ||||||
| 08 | 17:55 | E 6 | 0.00 | Overcast | BKN025 BKN030 OVC038 | 25.7 | 22 | 80% | 27 | 75.64 | 0.0 | ||||||
| 08 | 17:35 | SE 9 | 0.00 | Overcast | SCT017 OVC027 | 26 | 22 | 79% | 28 | 75.64 | 0.0 | ||||||
| 08 | 17:15 | E 6 | 0.00 | Overcast | BKN023 OVC029 | 26.1 | 22 | 78% | 28 | 75.67 | 0.0 | ||||||
| 08 | 16:55 | E 7 | 0.00 | Overcast | OVC023 | 25.6 | 21.8 | 80% | 27 | 75.67 | 0.0 | ||||||
| 08 | 16:35 | SE 11 | 0.00 | Overcast | OVC023 | 25.1 | 21.4 | 80% | 26 | 75.67 | 0.0 | ||||||
| 08 | 16:15 | E 11 | 0.00 | Overcast | BKN021 OVC029 | 25 | 21.3 | 80% | 26 | 75.72 | 0.0 | ||||||
| 08 | 15:55 | E 7 | 0.00 | Overcast | OVC031 | 25.5 | 21.1 | 77% | 27 | 75.72 | 0.0 | ||||||
| 08 | 15:35 | SE 11 | 0.00 | Overcast | SCT020 OVC035 | 25.5 | 21.1 | 77% | 27 | 75.74 | 0.0 | ||||||
| 08 | 15:15 | E 7 | 0.00 | Overcast | BKN020 BKN031 OVC037 | 24.7 | 20.7 | 79% | 25 | 75.77 | 0.0 | ||||||
| 08 | 14:35 | Calm | 0.00 | Overcast | OVC016 | 23.1 | 19.4 | 80% | 75.79 | 0.0 | |||||||
| 08 | 14:15 | SE 6 | 0.00 | Overcast | OVC016 | 23.2 | 19.4 | 79% | 75.82 | 0.0 | |||||||
| 08 | 13:55 | E 6 | 0.00 | Overcast | OVC016 | 22.6 | 18.9 | 80% | 75.84 | 0.0 | |||||||
| 08 | 13:35 | Calm | 0.00 | Overcast | OVC018 | 22.2 | 18.6 | 80% | 75.84 | 0.0 | |||||||
| 08 | 13:15 | E 6 | 0.00 | Overcast | OVC018 | 21.7 | 18.1 | 80% | 75.87 | 0.0 | |||||||
| 08 | 12:35 | E 6 | 0.00 | Overcast | OVC018 | 21 | 17.6 | 81% | 75.9 | 0.0 | |||||||
| 08 | 12:15 | Calm | 0.00 | Overcast | OVC018 | 20.9 | 17.4 | 81% | 75.92 | 0.0 | |||||||
| 08 | 11:55 | NE 6 | 0.00 | Overcast | OVC018 | 20.6 | 17.1 | 80% | 75.92 | 0.0 | |||||||
| 08 | 11:35 | NE 6 | 0.00 | Overcast | OVC018 | 20.6 | 17 | 80% | 75.95 | 0.0 | |||||||
| 08 | 11:15 | Calm | 0.00 | Overcast | OVC018 | 20 | 16.6 | 81% | 75.95 | 0.0 | |||||||
| 08 | 10:55 | NE 6 | 0.00 | Overcast | SCT012 OVC018 | 19.8 | 16.5 | 81% | 75.97 | 0.0 | |||||||
| 08 | 10:35 | Calm | 0.00 | Overcast | OVC018 | 19.6 | 16.2 | 81% | 76 | 0.0 | |||||||
| 08 | 10:15 | NE 6 | 0.00 | Overcast | SCT012 OVC018 | 19.6 | 16.2 | 81% | 76 | 0.0 | |||||||
| 08 | 09:55 | NE 6 | 0.00 | Overcast | SCT012 OVC018 | 19.4 | 16 | 81% | 76 | 0.0 | |||||||
| 08 | 09:35 | NE 7 | 0.00 | Overcast | BKN014 OVC018 | 19.1 | 15.7 | 81% | 76 | 0.0 | |||||||
| 08 | 09:15 | N 7 | 0.00 | Overcast | OVC014 | 19 | 15.7 | 81% | 76 | 0.0 | |||||||
| 08 | 08:35 | NE 7 | 0.00 | Overcast | OVC010 | 18.6 | 15.5 | 82% | 76 | 0.0 | |||||||
| 08 | 08:15 | NE 6 | 0.00 | Overcast | OVC010 | 18.3 | 15.5 | 84% | 76 | 0.0 | |||||||
| 08 | 07:55 | NE 6 | 0.00 | Overcast | OVC010 | 18.1 | 15.2 | 83% | 76 | 0.0 | |||||||
| 08 | 07:35 | NE 7 | 0.00 | Overcast | OVC010 | 18 | 15.2 | 84% | 76 | 0.0 | |||||||
| 08 | 07:15 | NE 7 | 0.00 | Overcast | OVC010 | 17.7 | 15.3 | 86% | 75.97 | 0.0 | |||||||
| 08 | 06:55 | N 7 | 0.00 | Overcast | OVC012 | 17.6 | 15.5 | 18.5 | 17.6 | 88% | 76 | 0.0 | |||||
| 08 | 06:35 | N 7 | 0.00 | Overcast | OVC012 | 17.7 | 15.5 | 87% | 76.02 | 0.0 | |||||||
| 08 | 06:15 | N 7 | 0.00 | Overcast | BKN010 OVC025 | 18.1 | 15.1 | 83% | 76.05 | 0.0 | |||||||
| 08 | 05:55 | Calm | 0.00 | Overcast | BKN010 OVC025 | 18.2 | 14.6 | 80% | 76 | 0.0 | |||||||
| 08 | 05:35 | Calm | 0.00 | Overcast | OVC012 | 18.2 | 14.3 | 78% | 76 | 0.0 | |||||||
| 08 | 05:15 | N 6 | 0.00 | Overcast | OVC014 | 18.1 | 14.5 | 80% | 76.02 | 0.0 | |||||||
| 08 | 04:55 | N 9 | 0.00 | Overcast | OVC014 | 18.1 | 14.5 | 80% | 76.07 | 0.0 | |||||||
| 08 | 04:35 | N 7 | 0.00 | Overcast | OVC016 | 18.1 | 14.4 | 79% | 76.05 | 0.0 | |||||||
| 08 | 04:15 | NE 9 | 0.00 | Overcast | OVC016 | 18 | 14 | 78% | 75.97 | 0.0 | |||||||
| 08 | 03:55 | N 7 | 0.00 | Overcast | OVC016 | 18 | 14.1 | 78% | 76 | 0.0 | |||||||
| 08 | 03:35 | N 9 | 0.00 | Overcast | OVC020 | 18 | 14 | 78% | 76.02 | 0.0 | |||||||
| 08 | 03:15 | N 7 | 0.00 | Overcast | OVC020 | 18 | 14 | 78% | 76.02 | 0.0 | |||||||
| 08 | 02:55 | N 6 | 0.00 | Overcast | OVC020 | 18.2 | 14 | 77% | 76 | 0.0 | |||||||
| 08 | 02:35 | Calm | 0.00 | Overcast | OVC022 | 18.2 | 13.9 | 76% | 76.02 | 0.0 | |||||||
| 08 | 02:15 | N 7 | 0.00 | Overcast | OVC022 | 18.3 | 13.9 | 76% | 76.05 | 0.0 | |||||||
| 08 | 01:55 | NE 6 | 0.00 | Overcast | OVC026 | 18.2 | 13.7 | 75% | 76.07 | 0.0 | |||||||
| 08 | 01:35 | N 6 | 0.00 | Overcast | OVC028 | 18.3 | 13.8 | 75% | 76.1 | 0.0 | |||||||
| 08 | 01:15 | NW 7 | 0.00 | Overcast | OVC028 | 18.4 | 13.9 | 75% | 76.15 | 0.0 | |||||||
| 08 | 00:55 | NW 7 | 0.00 | Overcast | OVC026 | 18.5 | 14 | 20.8 | 18.4 | 75% | 76.15 | 0.0 | |||||
| 08 | 00:35 | N 7 | 0.00 | Overcast | OVC024 | 18.5 | 13.9 | 75% | 76.07 | 0.0 | |||||||
| 08 | 00:15 | NE 7 | 0.00 | Overcast | OVC024 | 18.5 | 13.8 | 74% | 76.02 | 0.0 | |||||||
| 07 | 23:55 | NE 6 | 0.00 | Overcast | BKN026 OVC037 | 18.5 | 14 | 75% | 76.05 | 0.0 | |||||||
| 07 | 23:35 | N 9 | 0.00 | Overcast | SCT026 OVC037 | 18.5 | 14.2 | 76% | 76.07 | 0.0 | |||||||
| 07 | 23:15 | N 9 | 0.00 | Overcast | BKN026 OVC037 | 18.5 | 14.2 | 76% | 76.1 | 0.0 | |||||||
| 07 | 22:55 | N 11 | 0.00 | Mostly Cloudy | BKN026 | 18.7 | 14.6 | 77% | 76.15 | 0.0 | |||||||
| 07 | 22:35 | N 7 | 0.00 | Partly Cloudy | SCT026 | 18.4 | 14.7 | 79% | 76.12 | 0.0 | |||||||
| 07 | 22:15 | N 6 | 0.00 | Fair | CLR | 18.7 | 14.6 | 77% | 76.07 | 0.0 | |||||||
| 07 | 21:55 | N 6 | 0.00 | Fair | CLR | 19.2 | 14.1 | 72% | 76.07 | 0.0 | |||||||
| 07 | 21:35 | NE 6 | 0.00 | Fair | CLR | 19.6 | 13.8 | 69% | 76 | 0.0 | |||||||
| 07 | 21:15 | E 11 | 0.00 | Fair | CLR | 19.8 | 14 | 69% | 76 | 0.0 | |||||||
| 07 | 20:55 | E 11 | 0.00 | Fair | CLR | 19.8 | 13.7 | 68% | 75.95 | 0.0 | |||||||
| 07 | 20:35 | E 13 | 0.00 | Partly Cloudy | SCT050 | 20 | 13.9 | 68% | 75.97 | 0.0 | |||||||
| 07 | 20:15 | NE 9 | 0.00 | Mostly Cloudy | BKN050 | 20.4 | 13.9 | 66% | 76.05 | 0.0 | |||||||
| 07 | 19:55 | NE 11 | 0.00 | Overcast | OVC046 | 20.5 | 13.9 | 66% | 76.07 | 0.0 | |||||||
| 07 | 19:35 | N 13 | 0.00 | Overcast | OVC042 | 20.6 | 14 | 66% | 76.1 | 0.0 | |||||||
| 07 | 19:15 | NE 9 | 0.00 | Overcast | OVC040 | 20.7 | 14 | 66% | 76.07 | 0.0 | |||||||
| 07 | 18:55 | NE 13 | 0.00 | Mostly Cloudy | BKN038 | 20.9 | 14.1 | 22.9 | 19.9 | 65% | 76.12 | 0.0 | |||||
| 07 | 18:35 | NE 11 | 0.00 | Fair | CLR | 21 | 14.3 | 66% | 76.1 | 0.0 | |||||||
| 07 | 18:15 | NE 11 | 0.00 | Partly Cloudy | SCT029 | 20.6 | 14.1 | 66% | 76.1 | 0.0 | |||||||
| 07 | 17:55 | N 19 G 26 | 0.00 | Partly Cloudy | SCT031 | 20.6 | 14.4 | 68% | 76.12 | 0.0 | |||||||
| 07 | 17:35 | N 19 G 30 | 0.00 | Partly Cloudy | SCT031 SCT120 | 20.8 | 14.5 | 67% | 76.12 | 0.0 | |||||||
| 07 | 17:15 | N 20 G 26 | 0.00 | Mostly Cloudy | SCT031 BKN120 | 21.2 | 14.7 | 67% | 76.1 | 0.0 | |||||||
| 07 | 16:55 | N 15 | 0.00 | Mostly Cloudy | BKN031 BKN120 | 21.9 | 15.2 | 66% | 76.12 | 0.0 | |||||||
| 07 | 16:35 | N 15 G 26 | 0.00 | Partly Cloudy | SCT031 SCT044 SCT120 | 22.5 | 15.7 | 66% | 76.1 | 0.0 | |||||||
| 07 | 16:15 | NE 17 G 28 | 0.00 | Partly Cloudy | SCT120 | 22.8 | 15.7 | 64% | 76.1 | 0.0 | |||||||
| 07 | 15:55 | N 13 G 26 | 0.00 | Partly Cloudy | SCT120 | 22.6 | 15.6 | 65% | 76.1 | 0.0 | |||||||
| 07 | 15:35 | N 15 G 26 | 0.00 | Partly Cloudy | SCT120 | 22.3 | 15.5 | 66% | 76.1 | 0.0 | |||||||
| 07 | 15:15 | NE 11 | 0.00 | Fair | CLR | 22.3 | 15.6 | 66% | 76.1 | 0.0 | |||||||
| 07 | 14:55 | N 13 | 0.00 | Partly Cloudy | SCT031 SCT045 | 22.2 | 15.5 | 66% | 76.15 | 0.0 | |||||||
| 07 | 14:35 | N 15 | 0.00 | Overcast | BKN031 OVC045 | 22.4 | 15.7 | 66% | 76.17 | 0.0 | |||||||
| 07 | 14:15 | N 11 | 0.00 | Overcast | SCT031 OVC045 | 21.8 | 15.6 | 68% | 76.2 | 0.0 | |||||||
| 07 | 13:55 | NE 13 | 0.00 | Partly Cloudy | SCT045 | 22.2 | 15.5 | 66% | 76.2 | 0.0 | |||||||
| 07 | 13:35 | NE 11 | 0.00 | Fair | CLR | 21.1 | 14.9 | 68% | 76.2 | 0.0 | |||||||
| 07 | 13:15 | NE 17 | 0.00 | Partly Cloudy | SCT026 SCT055 | 20.9 | 14.6 | 67% | 76.23 | 0.0 | |||||||
| 07 | 12:55 | NE 19 G 31 | 0.00 | Mostly Cloudy | BKN028 BKN055 | 19.8 | 14.2 | 20.1 | 16.5 | 70% | 76.25 | 0.0 | |||||
| 07 | 12:35 | N 19 | 0.00 | Overcast | OVC028 | 20 | 14.6 | 71% | 76.3 | 0.0 | |||||||
| 07 | 12:15 | NE 19 | 0.00 | Overcast | OVC028 | 19.3 | 14.3 | 73% | 76.33 | 0.0 | |||||||
| 07 | 11:55 | N 19 G 26 | 0.00 | Overcast | OVC026 | 19.1 | 14.1 | 73% | 76.3 | 0.0 | |||||||
| 07 | 11:35 | N 20 G 28 | 0.00 | Overcast | SCT019 OVC026 | 18.6 | 14 | 75% | 76.33 | 0.0 | |||||||
| 07 | 11:15 | N 24 G 31 | 0.00 | Overcast | BKN017 OVC026 | 19.1 | 14.5 | 75% | 76.3 | 0.0 | |||||||
| 07 | 10:55 | N 26 G 35 | 0.00 | Overcast | BKN017 OVC026 | 18.6 | 14.2 | 76% | 76.28 | 0.0 | |||||||
| 07 | 10:35 | N 20 G 28 | 0.00 | Overcast | BKN017 OVC026 | 17.8 | 14.1 | 79% | 76.3 | 0.0 | |||||||
| 07 | 10:15 | N 17 | 0.00 | Overcast | OVC015 | 17 | 13.6 | 81% | 76.3 | 0.0 | |||||||
| 07 | 09:55 | N 15 G 26 | 0.00 | Overcast | OVC013 | 16.8 | 13.8 | 83% | 76.3 | 0.0 | |||||||
| 07 | 09:35 | N 15 G 30 | 0.00 | Overcast | OVC011 | 17 | 14.2 | 84% | 76.28 | 0.0 | |||||||
| 07 | 09:15 | N 22 G 31 | 0.00 | Overcast | OVC011 | 16.7 | 14.3 | 86% | 76.25 | 0.0 | |||||||
| 07 | 08:55 | N 20 G 37 | 0.00 | Overcast | OVC011 | 17 | 14.3 | 84% | 76.23 | 0.0 | |||||||
| 07 | 08:35 | N 19 G 39 | 0.00 | Overcast | OVC011 | 16.7 | 14.2 | 85% | 76.25 | 0.0 | |||||||
| 07 | 08:15 | N 22 G 30 | 0.00 | Overcast | OVC011 | 16.5 | 14.2 | 86% | 76.28 | 0.0 | |||||||
| 07 | 07:55 | N 9 | 0.00 | Overcast | OVC011 | 16.5 | 14.5 | 88% | 76.33 | 0.0 | |||||||
| 07 | 07:35 | N 20 G 31 | 0.00 | Overcast | OVC011 | 16.5 | 14.4 | 88% | 76.2 | 0.0 | |||||||
| 07 | 07:15 | N 19 G 31 | 0.00 | Overcast | OVC013 | 16.7 | 14.4 | 86% | 76.17 | 0.0 | |||||||
| 07 | 06:55 | N 15 G 26 | 0.00 | Overcast | OVC015 | 17 | 14.3 | 18.2 | 17 | 84% | 76.2 | 0.0 | |||||
| 07 | 06:35 | N 13 G 26 | 0.00 | Overcast | OVC017 | 17.2 | 14.4 | 84% | 76.23 | 0.0 | |||||||
| 07 | 06:15 | N 17 | 0.00 | Overcast | OVC017 | 17.5 | 14.6 | 83% | 76.12 | 0.0 | |||||||
| 07 | 05:55 | N 17 G 28 | 0.00 | Overcast | OVC017 | 17.6 | 14.6 | 83% | 76.1 | 0.0 | |||||||
| 07 | 05:35 | N 22 G 30 | 0.00 | Overcast | OVC017 | 17.6 | 14.5 | 82% | 76.1 | 0.0 | |||||||
| 07 | 05:15 | N 19 | 0.00 | Overcast | OVC017 | 17.7 | 14.5 | 82% | 76.1 | 0.0 | |||||||
| 07 | 04:55 | N 15 | 0.00 | Overcast | OVC019 | 17.7 | 14.5 | 82% | 76.1 | 0.0 | |||||||
| 07 | 04:35 | N 15 | 0.00 | Overcast | OVC019 | 17.8 | 14.5 | 81% | 76.1 | 0.0 | |||||||
| 07 | 04:15 | N 13 | 0.00 | Overcast | OVC019 | 18 | 14.5 | 80% | 76.1 | 0.0 | |||||||
| 07 | 03:55 | N 17 | 0.00 | Overcast | OVC019 | 18 | 14.5 | 80% | 76.07 | 0.0 | |||||||
| 07 | 03:35 | N 13 | 0.00 | Overcast | OVC019 | 18 | 14.5 | 80% | 76.07 | 0.0 | |||||||
| 07 | 03:15 | N 11 | 0.00 | Overcast | OVC019 | 18 | 14.5 | 80% | 76.1 | 0.0 | |||||||
| 07 | 02:55 | N 11 | 0.00 | Overcast | OVC019 | 18 | 14.4 | 80% | 76.07 | 0.0 | |||||||
| 07 | 02:15 | N 7 | 0.00 | Overcast | OVC019 | 18.1 | 14.5 | 80% | 76.1 | 0.0 | |||||||
| 07 | 01:55 | N 15 | 0.00 | Overcast | OVC021 | 18.1 | 14.5 | 80% | 76.1 | 0.0 | |||||||
| 07 | 01:35 | N 13 | 0.00 | Overcast | OVC021 | 18.2 | 14.7 | 80% | 76.1 | 0.0 | |||||||
| 07 | 01:15 | N 11 | 0.00 | Overcast | OVC021 | 18.2 | 14.7 | 80% | 76.07 | 0.0 | |||||||
| Date | Time (cdt) | Wind (kph) | Vis. (km) | Weather | Sky Cond. | Air | Dwpt | Max. | Min. | Relative Humidity | Wind Chill (°C) | Heat Index (°C) | altimeter (cm) | sea level (mb) | 1 hr | 3 hr | 6 hr |
| 6 hour | |||||||||||||||||
| Temperature (ºC) | Pressure | Precipitation (cm) | |||||||||||||||